createdAt,value
2022-10-19T00:01:44.617Z,6.90
2022-10-19T00:04:11.492Z,7.00
2022-10-19T00:06:38.425Z,6.90
2022-10-19T00:09:09.247Z,6.70
2022-10-19T00:11:39.007Z,6.60
2022-10-19T00:14:06.352Z,6.60
2022-10-19T00:16:35.817Z,6.80
2022-10-19T00:19:06.050Z,6.80
2022-10-19T00:21:33.302Z,6.80
2022-10-19T00:23:59.985Z,6.80
2022-10-19T00:26:27.025Z,7.00
2022-10-19T00:28:55.139Z,6.70
2022-10-19T00:31:22.503Z,6.60
2022-10-19T00:33:49.321Z,6.70
2022-10-19T00:36:25.007Z,6.60
2022-10-19T00:38:52.493Z,6.60
2022-10-19T00:41:21.210Z,6.60
2022-10-19T00:44:03.470Z,6.50
2022-10-19T00:46:33.407Z,6.50
2022-10-19T00:49:09.976Z,6.50
2022-10-19T00:51:43.907Z,6.40
2022-10-19T00:54:11.755Z,6.30
2022-10-19T00:56:41.954Z,6.60
2022-10-19T00:59:09.581Z,6.50
2022-10-19T01:01:36.904Z,6.30
2022-10-19T01:04:04.741Z,6.20
2022-10-19T01:06:32.067Z,6.20
2022-10-19T01:08:58.848Z,6.10
2022-10-19T01:11:55.701Z,6.30
2022-10-19T01:14:43.743Z,6.40
2022-10-19T01:17:39.833Z,6.10
2022-10-19T01:20:06.534Z,6.00
2022-10-19T01:22:54.950Z,6.00
2022-10-19T01:25:21.629Z,6.20
2022-10-19T01:28:11.845Z,6.20
2022-10-19T01:31:02.711Z,6.00
2022-10-19T01:33:38.832Z,6.10
2022-10-19T01:36:55.638Z,6.20
2022-10-19T01:39:38.555Z,6.20
2022-10-19T01:42:32.121Z,6.00
2022-10-19T01:45:18.942Z,6.00
2022-10-19T01:47:55.889Z,5.90
2022-10-19T01:50:36.062Z,6.00
2022-10-19T01:53:05.263Z,5.90
2022-10-19T01:55:33.440Z,5.90
2022-10-19T01:58:07.257Z,5.70
2022-10-19T02:00:38.945Z,5.80
2022-10-19T02:03:07.073Z,5.70
2022-10-19T02:05:35.278Z,5.60
2022-10-19T02:08:07.039Z,5.60
2022-10-19T02:10:38.231Z,5.70
2022-10-19T02:13:06.996Z,5.60
2022-10-19T02:15:38.219Z,5.50
2022-10-19T02:18:07.070Z,5.50
2022-10-19T02:20:36.389Z,5.40
2022-10-19T02:23:05.738Z,5.20
2022-10-19T02:25:33.276Z,5.20
2022-10-19T02:28:02.112Z,5.40
2022-10-19T02:30:29.042Z,5.30
2022-10-19T02:32:55.901Z,5.20
2022-10-19T02:35:23.004Z,5.20
2022-10-19T02:37:49.789Z,5.20
2022-10-19T02:40:16.907Z,5.30
2022-10-19T02:42:58.480Z,5.20
2022-10-19T02:45:31.563Z,5.20
2022-10-19T02:48:07.484Z,5.20
2022-10-19T02:50:34.412Z,5.20
2022-10-19T02:53:01.283Z,5.20
2022-10-19T02:55:30.511Z,4.90
2022-10-19T02:57:57.409Z,5.10
2022-10-19T03:00:24.105Z,5.10
2022-10-19T03:02:50.822Z,5.00
2022-10-19T03:05:17.591Z,5.10
2022-10-19T03:07:45.322Z,5.10
2022-10-19T03:10:11.970Z,5.00
2022-10-19T03:12:38.712Z,4.90
2022-10-19T03:15:05.757Z,5.10
2022-10-19T03:17:32.592Z,4.80
2022-10-19T03:19:59.519Z,4.80
2022-10-19T03:22:44.463Z,4.90
2022-10-19T03:25:11.124Z,5.00
2022-10-19T03:27:37.759Z,4.70
2022-10-19T03:30:04.736Z,4.70
2022-10-19T03:32:31.473Z,4.70
2022-10-19T03:34:58.097Z,4.80
2022-10-19T03:37:24.784Z,4.60
2022-10-19T03:39:51.469Z,4.60
2022-10-19T03:42:18.432Z,4.70
2022-10-19T03:44:45.061Z,4.60
2022-10-19T03:47:11.857Z,4.60
2022-10-19T03:49:40.274Z,4.50
2022-10-19T03:52:09.246Z,4.40
2022-10-19T03:54:39.451Z,4.40
2022-10-19T03:57:06.226Z,4.50
2022-10-19T03:59:32.867Z,4.40
2022-10-19T04:01:59.530Z,4.50
2022-10-19T04:04:27.324Z,4.60
2022-10-19T04:06:54.029Z,4.40
2022-10-19T04:09:22.107Z,4.30
2022-10-19T04:11:49.794Z,4.30
2022-10-19T04:14:31.638Z,4.20
2022-10-19T04:17:01.482Z,3.90
2022-10-19T04:19:28.228Z,4.20
2022-10-19T04:21:54.908Z,4.10
2022-10-19T04:24:21.534Z,4.00
2022-10-19T04:26:50.321Z,3.80
2022-10-19T04:29:22.822Z,3.80
2022-10-19T04:31:52.382Z,3.90
2022-10-19T04:34:19.467Z,3.90
2022-10-19T04:36:46.174Z,3.80
2022-10-19T04:39:12.906Z,3.90
2022-10-19T04:41:39.570Z,3.90
2022-10-19T04:44:07.202Z,3.90
2022-10-19T04:46:35.950Z,3.90
2022-10-19T04:49:04.326Z,3.90
2022-10-19T04:51:30.987Z,4.00
2022-10-19T04:53:59.607Z,3.90
2022-10-19T04:56:27.428Z,3.90
2022-10-19T04:58:58.441Z,3.90
2022-10-19T05:01:27.416Z,4.00
2022-10-19T05:03:59.472Z,4.00
2022-10-19T05:06:26.262Z,4.40
2022-10-19T05:08:53.334Z,7.10
2022-10-19T05:11:21.492Z,8.00
2022-10-19T05:13:49.003Z,8.70
2022-10-19T05:16:18.983Z,9.60
2022-10-19T05:18:50.792Z,10.40
2022-10-19T05:21:28.784Z,10.90
2022-10-19T05:23:56.865Z,10.90
2022-10-19T05:26:26.696Z,10.90
2022-10-19T05:29:00.430Z,10.90
2022-10-19T05:31:34.408Z,11.10
2022-10-19T05:34:01.324Z,11.10
2022-10-19T05:36:37.212Z,11.20
2022-10-19T05:39:07.556Z,11.00
2022-10-19T05:41:34.666Z,11.20
2022-10-19T05:44:02.189Z,11.20
2022-10-19T05:46:30.479Z,11.30
2022-10-19T05:48:58.472Z,10.90
2022-10-19T05:51:26.751Z,11.10
2022-10-19T05:53:54.486Z,11.00
2022-10-19T05:56:24.026Z,11.20
2022-10-19T05:58:51.554Z,11.10
2022-10-19T06:01:19.266Z,9.60
2022-10-19T06:03:47.237Z,6.60
2022-10-19T06:06:15.094Z,6.00
2022-10-19T06:08:45.429Z,5.50
2022-10-19T06:11:18.276Z,5.30
2022-10-19T06:13:45.988Z,5.10
2022-10-19T06:16:15.473Z,4.90
2022-10-19T06:18:42.832Z,5.00
2022-10-19T06:21:15.178Z,4.80
2022-10-19T06:26:14.649Z,4.30
2022-10-19T06:28:42.761Z,4.10
2022-10-19T06:31:10.266Z,4.10
2022-10-19T06:33:37.296Z,4.10
2022-10-19T06:36:13.045Z,4.20
2022-10-19T06:38:40.594Z,4.20
2022-10-19T06:41:08.106Z,4.20
2022-10-19T06:43:35.176Z,4.10
2022-10-19T06:46:07.557Z,4.20
2022-10-19T06:48:34.504Z,4.20
2022-10-19T06:51:06.215Z,4.30
2022-10-19T06:53:34.332Z,4.50
2022-10-19T06:56:02.803Z,4.50
2022-10-19T06:58:30.389Z,4.50
2022-10-19T07:00:58.416Z,4.50
2022-10-19T07:03:29.781Z,4.60
2022-10-19T07:05:58.907Z,4.80
2022-10-19T07:08:27.369Z,5.10
2022-10-19T07:10:56.906Z,5.20
2022-10-19T07:13:27.048Z,5.40
2022-10-19T07:16:06.638Z,5.50
2022-10-19T07:18:37.645Z,5.60
2022-10-19T07:21:07.356Z,5.70
2022-10-19T07:23:35.770Z,5.90
2022-10-19T07:26:13.972Z,6.00
2022-10-19T07:28:45.009Z,6.10
2022-10-19T07:31:15.044Z,6.20
2022-10-19T07:33:42.727Z,6.20
2022-10-19T07:36:11.088Z,6.20
2022-10-19T07:38:37.941Z,6.20
2022-10-19T07:41:12.658Z,6.40
2022-10-19T07:43:42.776Z,6.50
2022-10-19T07:46:13.213Z,6.60
2022-10-19T07:48:40.229Z,6.90
2022-10-19T07:51:08.928Z,7.00
2022-10-19T07:53:36.301Z,7.40
2022-10-19T07:56:05.570Z,7.50
2022-10-19T07:58:32.674Z,7.70
2022-10-19T08:01:12.290Z,8.10
2022-10-19T08:06:26.866Z,8.20
2022-10-19T08:08:54.392Z,8.20
2022-10-19T08:11:31.227Z,8.20
2022-10-19T08:14:03.029Z,8.20
2022-10-19T08:16:41.371Z,8.30
2022-10-19T08:19:14.196Z,8.40
2022-10-19T08:21:43.925Z,8.50
2022-10-19T08:24:12.515Z,8.70
2022-10-19T08:26:42.739Z,8.90
2022-10-19T08:29:13.919Z,9.10
2022-10-19T08:31:41.600Z,9.40
2022-10-19T08:34:08.788Z,9.90
2022-10-19T08:36:37.069Z,9.70
2022-10-19T08:39:06.415Z,9.70
2022-10-19T08:41:41.781Z,9.90
2022-10-19T08:44:27.198Z,10.00
2022-10-19T08:47:27.767Z,10.10
2022-10-19T08:49:55.954Z,10.20
2022-10-19T08:52:29.610Z,10.10
2022-10-19T08:55:09.141Z,10.40
2022-10-19T08:57:58.616Z,10.50
2022-10-19T09:00:25.334Z,10.50
2022-10-19T09:03:27.170Z,10.50
2022-10-19T09:06:24.534Z,10.50
2022-10-19T09:08:52.890Z,10.70
2022-10-19T09:11:26.050Z,10.70
2022-10-19T09:14:18.455Z,10.80
2022-10-19T09:16:46.316Z,10.80
2022-10-19T09:19:22.003Z,11.10
2022-10-19T09:22:17.232Z,11.00
2022-10-19T09:24:52.468Z,11.10
2022-10-19T09:27:25.169Z,11.10
2022-10-19T09:30:04.844Z,11.40
2022-10-19T09:32:35.266Z,11.40
2022-10-19T09:35:08.160Z,11.50
2022-10-19T09:37:43.158Z,11.50
2022-10-19T09:40:18.131Z,11.50
2022-10-19T09:42:44.848Z,11.50
2022-10-19T09:45:19.760Z,11.60
2022-10-19T09:47:48.619Z,11.60
2022-10-19T09:50:24.486Z,11.70
2022-10-19T09:53:02.559Z,11.80
2022-10-19T09:55:41.445Z,11.80
2022-10-19T09:58:13.740Z,11.80
2022-10-19T10:00:46.129Z,11.80
2022-10-19T10:03:24.299Z,11.90
2022-10-19T10:05:51.715Z,12.40
2022-10-19T10:08:25.827Z,12.10
2022-10-19T10:11:19.166Z,12.10
2022-10-19T10:13:53.978Z,12.00
2022-10-19T10:16:23.300Z,12.10
2022-10-19T10:18:55.165Z,12.20
2022-10-19T10:21:34.799Z,12.10
2022-10-19T10:24:12.323Z,12.60
2022-10-19T10:26:45.276Z,12.20
2022-10-19T10:29:20.109Z,12.10
2022-10-19T10:31:56.305Z,12.20
2022-10-19T10:35:00.986Z,12.20
2022-10-19T10:37:44.737Z,12.60
2022-10-19T10:40:29.865Z,12.60
2022-10-19T10:43:02.328Z,12.50
2022-10-19T10:45:34.350Z,13.20
2022-10-19T10:48:34.444Z,12.90
2022-10-19T10:51:02.361Z,12.70
2022-10-19T10:53:43.318Z,12.80
2022-10-19T10:56:26.962Z,12.80
2022-10-19T10:59:02.169Z,12.80
2022-10-19T11:01:40.580Z,12.80
2022-10-19T11:04:19.625Z,13.30
2022-10-19T11:06:55.007Z,13.20
2022-10-19T11:09:43.576Z,13.50
2022-10-19T11:12:14.685Z,13.40
2022-10-19T11:14:52.888Z,13.50
2022-10-19T11:17:26.327Z,13.80
2022-10-19T11:19:53.715Z,13.10
2022-10-19T11:22:37.994Z,13.00
2022-10-19T11:25:07.954Z,13.30
2022-10-19T11:28:03.364Z,13.40
2022-10-19T11:30:32.758Z,13.30
2022-10-19T11:33:15.587Z,13.50
2022-10-19T11:35:43.345Z,13.30
2022-10-19T11:38:21.374Z,13.40
2022-10-19T11:41:22.592Z,13.20
2022-10-19T11:44:21.116Z,13.40
2022-10-19T11:47:00.785Z,13.30
2022-10-19T11:50:05.124Z,13.70
2022-10-19T11:52:32.120Z,13.50
2022-10-19T11:55:22.461Z,13.40
2022-10-19T11:58:38.404Z,13.40
2022-10-19T12:01:05.149Z,13.40
2022-10-19T12:03:34.811Z,13.30
2022-10-19T12:06:29.298Z,13.50
2022-10-19T12:09:16.304Z,13.50
2022-10-19T12:12:08.451Z,13.60
2022-10-19T12:14:42.251Z,13.60
2022-10-19T12:17:15.568Z,13.60
2022-10-19T12:19:52.264Z,13.60
2022-10-19T12:22:24.946Z,13.70
2022-10-19T12:24:55.411Z,13.80
2022-10-19T12:27:49.966Z,13.70
2022-10-19T12:30:22.780Z,13.70
2022-10-19T12:33:00.309Z,13.70
2022-10-19T12:36:03.096Z,13.60
2022-10-19T12:39:11.315Z,13.70
2022-10-19T12:41:52.077Z,13.70
2022-10-19T12:44:34.494Z,13.70
2022-10-19T12:47:20.055Z,13.60
2022-10-19T12:49:57.432Z,13.90
2022-10-19T12:52:42.104Z,13.90
2022-10-19T12:55:31.402Z,13.90
2022-10-19T12:58:01.510Z,14.20
2022-10-19T13:00:36.759Z,13.80
2022-10-19T13:03:13.525Z,14.00
2022-10-19T13:05:40.412Z,14.10
2022-10-19T13:08:10.790Z,13.80
2022-10-19T13:10:40.547Z,14.00
2022-10-19T13:13:45.702Z,13.90
2022-10-19T13:16:33.529Z,13.90
2022-10-19T13:19:03.350Z,13.80
2022-10-19T13:21:50.194Z,13.90
2022-10-19T13:24:27.632Z,13.80
2022-10-19T13:27:03.474Z,13.90
2022-10-19T13:29:45.442Z,14.00
2022-10-19T13:32:37.807Z,14.00
2022-10-19T13:35:25.156Z,14.00
2022-10-19T13:38:12.737Z,14.00
2022-10-19T13:40:48.667Z,13.90
2022-10-19T13:43:22.641Z,14.10
2022-10-19T13:46:03.974Z,14.00
2022-10-19T13:48:42.438Z,14.00
2022-10-19T13:51:44.614Z,13.90
2022-10-19T13:54:28.419Z,13.90
2022-10-19T13:57:38.416Z,13.90
2022-10-19T14:00:05.235Z,13.90
2022-10-19T14:02:56.520Z,14.00
2022-10-19T14:05:43.810Z,14.00
2022-10-19T14:08:48.083Z,14.10
2022-10-19T14:11:19.188Z,13.90
2022-10-19T14:14:06.340Z,14.00
2022-10-19T14:16:33.056Z,14.10
2022-10-19T14:18:59.744Z,14.00
2022-10-19T14:21:34.472Z,14.00
2022-10-19T14:24:01.428Z,14.00
2022-10-19T14:26:30.983Z,14.00
2022-10-19T14:28:59.902Z,14.00
2022-10-19T14:31:34.843Z,14.00
2022-10-19T14:34:04.244Z,13.90
2022-10-19T14:36:37.912Z,14.00
2022-10-19T14:39:07.521Z,14.10
2022-10-19T14:41:37.148Z,14.10
2022-10-19T14:44:30.147Z,14.10
2022-10-19T14:46:56.964Z,14.10
2022-10-19T14:49:23.736Z,14.00
2022-10-19T14:52:00.601Z,14.00
2022-10-19T14:54:38.595Z,14.00
2022-10-19T14:57:09.643Z,13.90
2022-10-19T14:59:47.966Z,14.00
2022-10-19T15:02:32.357Z,13.90
2022-10-19T15:05:02.048Z,13.90
2022-10-19T15:07:40.426Z,13.90
2022-10-19T15:10:18.042Z,13.80
2022-10-19T15:12:45.275Z,13.80
2022-10-19T15:15:24.857Z,13.90
2022-10-19T15:17:57.031Z,13.80
2022-10-19T15:20:49.592Z,13.90
2022-10-19T15:23:39.870Z,13.70
2022-10-19T15:26:18.387Z,13.70
2022-10-19T15:28:45.531Z,13.70
2022-10-19T15:31:15.208Z,13.60
2022-10-19T15:33:48.835Z,13.50
2022-10-19T15:36:19.960Z,13.50
2022-10-19T15:38:48.675Z,13.50
2022-10-19T15:41:19.506Z,13.50
2022-10-19T15:43:50.091Z,13.40
2022-10-19T15:46:32.435Z,13.40
2022-10-19T15:49:23.832Z,13.40
2022-10-19T15:51:50.732Z,13.30
2022-10-19T15:54:19.171Z,13.40
2022-10-19T15:56:47.787Z,13.30
2022-10-19T15:59:21.168Z,13.40
2022-10-19T16:01:52.575Z,13.20
2022-10-19T16:04:22.649Z,13.30
2022-10-19T16:06:49.386Z,13.30
2022-10-19T16:09:21.062Z,13.10
2022-10-19T16:11:48.412Z,13.10
2022-10-19T16:16:49.981Z,13.00
2022-10-19T16:19:16.710Z,12.90
2022-10-19T16:21:47.937Z,13.00
2022-10-19T16:24:16.939Z,13.10
2022-10-19T16:26:43.598Z,13.00
2022-10-19T16:29:10.310Z,12.80
2022-10-19T16:31:38.990Z,12.80
2022-10-19T16:34:05.614Z,12.60
2022-10-19T16:36:32.413Z,12.80
2022-10-19T16:39:01.007Z,12.80
2022-10-19T16:41:27.740Z,12.70
2022-10-19T16:43:55.699Z,12.60
2022-10-19T16:46:25.496Z,12.50
2022-10-19T16:48:53.066Z,12.50
2022-10-19T16:51:30.836Z,12.60
2022-10-19T16:53:58.928Z,12.50
2022-10-19T16:56:27.984Z,12.50
2022-10-19T16:58:56.628Z,12.30
2022-10-19T17:01:24.064Z,12.30
2022-10-19T17:03:51.413Z,12.40
2022-10-19T17:06:18.978Z,12.20
2022-10-19T17:11:35.891Z,12.30
2022-10-19T17:14:07.259Z,12.30
2022-10-19T17:16:36.246Z,12.10
2022-10-19T17:19:05.643Z,12.10
2022-10-19T17:21:34.438Z,12.00
2022-10-19T17:24:02.630Z,12.00
2022-10-19T17:26:45.210Z,12.00
2022-10-19T17:29:13.325Z,12.10
2022-10-19T17:31:40.979Z,12.10
2022-10-19T17:34:09.166Z,12.10
2022-10-19T17:36:41.554Z,12.00
2022-10-19T17:39:12.107Z,12.10
2022-10-19T17:41:38.717Z,11.90
2022-10-19T17:44:05.872Z,11.70
2022-10-19T17:46:34.791Z,11.70
2022-10-19T17:49:01.780Z,11.80
2022-10-19T17:51:30.698Z,11.70
2022-10-19T17:54:03.070Z,11.60
2022-10-19T17:56:30.238Z,11.70
2022-10-19T17:58:57.986Z,11.60
2022-10-19T18:01:25.658Z,11.60
2022-10-19T18:03:53.255Z,11.60
2022-10-19T18:06:24.066Z,11.70
2022-10-19T18:08:56.624Z,11.90
2022-10-19T18:11:26.440Z,11.60
2022-10-19T18:13:55.840Z,11.50
2022-10-19T18:16:30.035Z,11.50
2022-10-19T18:18:58.597Z,11.70
2022-10-19T18:21:31.194Z,11.50
2022-10-19T18:24:02.456Z,11.50
2022-10-19T18:26:31.860Z,11.40
2022-10-19T18:29:01.129Z,11.50
2022-10-19T18:31:30.549Z,11.60
2022-10-19T18:34:02.660Z,11.50
2022-10-19T18:36:30.187Z,11.40
2022-10-19T18:39:02.486Z,11.40
2022-10-19T18:41:30.005Z,11.50
2022-10-19T18:44:03.196Z,11.30
2022-10-19T18:46:29.923Z,11.20
2022-10-19T18:49:00.534Z,11.10
2022-10-19T18:51:27.299Z,11.10
2022-10-19T18:53:55.461Z,11.00
2022-10-19T18:56:23.099Z,11.10
2022-10-19T18:58:50.114Z,11.00
2022-10-19T19:01:24.069Z,11.00
2022-10-19T19:03:52.502Z,10.90
2022-10-19T19:06:23.484Z,11.00
2022-10-19T19:08:50.260Z,11.00
2022-10-19T19:11:19.453Z,11.00
2022-10-19T19:13:51.714Z,11.00
2022-10-19T19:16:18.589Z,10.90
2022-10-19T19:18:45.562Z,10.80
2022-10-19T19:21:26.831Z,10.80
2022-10-19T19:23:57.494Z,11.10
2022-10-19T19:26:26.870Z,10.90
2022-10-19T19:28:54.779Z,10.90
2022-10-19T19:31:21.556Z,10.90
2022-10-19T19:33:48.692Z,10.90
2022-10-19T19:36:17.281Z,10.80
2022-10-19T19:38:44.342Z,10.90
2022-10-19T19:41:14.024Z,10.70
2022-10-19T19:43:42.407Z,10.80
2022-10-19T19:46:16.516Z,10.80
2022-10-19T19:48:45.451Z,10.60
2022-10-19T19:51:15.560Z,10.50
2022-10-19T19:53:43.448Z,10.60
2022-10-19T19:56:11.722Z,10.60
2022-10-19T19:58:41.555Z,10.70
2022-10-19T20:01:13.863Z,10.70
2022-10-19T20:03:41.528Z,10.80
2022-10-19T20:06:08.891Z,10.50
2022-10-19T20:08:38.549Z,10.50
2022-10-19T20:11:09.546Z,10.50
2022-10-19T20:13:36.706Z,10.50
2022-10-19T20:16:12.528Z,10.40
2022-10-19T20:19:13.795Z,10.30
2022-10-19T20:21:41.006Z,10.30
2022-10-19T20:24:08.766Z,10.40
2022-10-19T20:26:35.470Z,10.50
2022-10-19T20:29:03.480Z,10.40
2022-10-19T20:31:31.556Z,10.70
2022-10-19T20:33:58.288Z,10.50
2022-10-19T20:36:25.976Z,10.20
2022-10-19T20:38:55.200Z,10.10
2022-10-19T20:41:25.223Z,10.30
2022-10-19T20:43:53.707Z,10.10
2022-10-19T20:46:23.120Z,10.10
2022-10-19T20:48:51.123Z,10.10
2022-10-19T20:51:30.655Z,10.30
2022-10-19T20:54:00.386Z,10.10
2022-10-19T20:56:35.727Z,10.00
2022-10-19T20:59:07.979Z,10.10
2022-10-19T21:01:42.570Z,10.20
2022-10-19T21:04:15.613Z,10.10
2022-10-19T21:06:46.894Z,10.20
2022-10-19T21:09:40.338Z,10.30
2022-10-19T21:12:13.061Z,10.30
2022-10-19T21:14:41.771Z,10.10
2022-10-19T21:17:09.583Z,10.30
2022-10-19T21:19:36.289Z,10.40
2022-10-19T21:22:08.463Z,10.00
2022-10-19T21:24:40.202Z,10.10
2022-10-19T21:27:14.399Z,9.80
2022-10-19T21:29:48.396Z,9.90
2022-10-19T21:32:21.808Z,10.00
2022-10-19T21:34:53.533Z,10.10
2022-10-19T21:37:29.146Z,9.80
2022-10-19T21:40:01.760Z,9.70
2022-10-19T21:42:34.465Z,9.60
2022-10-19T21:45:25.600Z,9.60
2022-10-19T21:48:01.825Z,9.50
2022-10-19T21:51:20.279Z,9.60
2022-10-19T21:57:52.335Z,9.50
2022-10-19T22:00:19.121Z,9.30
2022-10-19T22:02:45.791Z,9.30
2022-10-19T22:05:16.837Z,9.30
2022-10-19T22:07:57.477Z,9.30
2022-10-19T22:10:39.304Z,9.30
2022-10-19T22:13:09.070Z,9.40
2022-10-19T22:15:50.985Z,9.40
2022-10-19T22:18:24.463Z,9.40
2022-10-19T22:21:06.070Z,9.40
2022-10-19T22:23:32.941Z,9.40
2022-10-19T22:26:10.855Z,9.20
2022-10-19T22:29:02.065Z,9.30
2022-10-19T22:31:29.912Z,9.50
2022-10-19T22:34:15.396Z,9.10
2022-10-19T22:36:49.885Z,9.20
2022-10-19T22:39:27.937Z,9.20
2022-10-19T22:42:12.958Z,9.10
2022-10-19T22:44:40.726Z,9.10
2022-10-19T22:47:10.860Z,9.20
2022-10-19T22:49:37.490Z,9.10
2022-10-19T22:52:04.406Z,9.00
2022-10-19T22:54:32.090Z,9.00
2022-10-19T22:56:58.748Z,9.10
2022-10-19T22:59:25.526Z,9.00
2022-10-19T23:01:54.350Z,9.30
2022-10-19T23:04:21.309Z,9.20
2022-10-19T23:06:48.084Z,9.00
2022-10-19T23:09:15.825Z,8.90
2022-10-19T23:11:42.591Z,8.90
2022-10-19T23:14:11.523Z,9.20
2022-10-19T23:16:38.212Z,9.00
2022-10-19T23:19:04.935Z,8.90
2022-10-19T23:21:31.584Z,8.90
2022-10-19T23:23:58.325Z,8.90
2022-10-19T23:26:26.121Z,8.80
2022-10-19T23:28:52.789Z,8.90
2022-10-19T23:31:25.234Z,8.80
2022-10-19T23:33:53.528Z,8.90
2022-10-19T23:36:25.677Z,8.90
2022-10-19T23:39:00.403Z,9.10
2022-10-19T23:41:27.366Z,8.80
2022-10-19T23:43:54.109Z,8.90
2022-10-19T23:46:20.799Z,8.80
2022-10-19T23:48:47.554Z,9.00
2022-10-19T23:51:16.576Z,8.80
2022-10-19T23:53:45.554Z,8.90
2022-10-19T23:56:15.559Z,8.70
2022-10-19T23:58:42.664Z,8.70
